createdAt,value
2022-09-01T00:00:18.435Z,52.97
2022-09-01T00:03:03.195Z,53.22
2022-09-01T00:05:48.173Z,53.65
2022-09-01T00:08:32.846Z,53.55
2022-09-01T00:11:17.847Z,53.97
2022-09-01T00:14:02.597Z,54.48
2022-09-01T00:16:47.490Z,55.08
2022-09-01T00:19:36.705Z,55.04
2022-09-01T00:22:21.381Z,55.74
2022-09-01T00:25:06.295Z,55.12
2022-09-01T00:27:50.967Z,54.96
2022-09-01T00:30:35.800Z,54.50
2022-09-01T00:33:20.484Z,55.15
2022-09-01T00:36:05.437Z,54.85
2022-09-01T00:38:50.179Z,55.49
2022-09-01T00:41:35.951Z,54.83
2022-09-01T00:44:20.977Z,54.97
2022-09-01T00:47:05.851Z,54.65
2022-09-01T00:49:50.682Z,54.24
2022-09-01T00:52:35.396Z,54.65
2022-09-01T00:55:20.257Z,55.00
2022-09-01T00:58:05.117Z,54.08
2022-09-01T01:00:49.854Z,54.63
2022-09-01T01:03:34.589Z,54.09
2022-09-01T01:06:19.457Z,54.88
2022-09-01T01:09:04.274Z,55.29
2022-09-01T01:11:49.009Z,55.22
2022-09-01T01:14:34.012Z,54.58
2022-09-01T01:17:18.879Z,55.26
2022-09-01T01:20:03.658Z,54.73
2022-09-01T01:22:48.425Z,54.84
2022-09-01T01:25:33.351Z,55.10
2022-09-01T01:28:18.232Z,55.78
2022-09-01T01:31:03.291Z,55.53
2022-09-01T01:33:48.410Z,55.09
2022-09-01T01:36:33.222Z,55.16
2022-09-01T01:39:18.075Z,55.41
2022-09-01T01:42:02.779Z,54.83
2022-09-01T01:44:47.684Z,55.47
2022-09-01T01:47:32.443Z,55.60
2022-09-01T01:50:17.290Z,55.36
2022-09-01T01:53:02.012Z,55.87
2022-09-01T01:55:46.957Z,55.87
2022-09-01T01:58:31.792Z,56.00
2022-09-01T02:01:16.711Z,56.25
2022-09-01T02:04:02.121Z,55.86
2022-09-01T02:06:46.882Z,55.65
2022-09-01T02:09:31.707Z,56.22
2022-09-01T02:12:16.571Z,55.56
2022-09-01T02:15:01.369Z,55.55
2022-09-01T02:17:46.263Z,55.43
2022-09-01T02:20:31.090Z,56.48
2022-09-01T02:23:15.862Z,56.48
2022-09-01T02:26:15.605Z,56.87
2022-09-01T02:29:01.050Z,57.34
2022-09-01T02:31:45.863Z,58.81
2022-09-01T02:34:30.744Z,58.59
2022-09-01T02:37:15.577Z,57.53
2022-09-01T02:40:00.558Z,59.17
2022-09-01T02:42:45.332Z,58.47
2022-09-01T02:45:30.269Z,59.06
2022-09-01T02:48:15.489Z,57.45
2022-09-01T02:51:03.899Z,58.33
2022-09-01T02:53:48.927Z,57.77
2022-09-01T02:56:33.747Z,58.67
2022-09-01T02:59:18.662Z,58.78
2022-09-01T03:02:03.331Z,59.23
2022-09-01T03:04:48.138Z,59.92
2022-09-01T03:07:33.477Z,60.22
2022-09-01T03:10:18.190Z,59.49
2022-09-01T03:13:03.062Z,59.23
2022-09-01T03:15:47.964Z,60.07
2022-09-01T03:18:32.851Z,60.27
2022-09-01T03:21:17.569Z,61.01
2022-09-01T03:24:02.427Z,61.10
2022-09-01T03:26:49.762Z,60.31
2022-09-01T03:29:36.823Z,60.00
2022-09-01T03:32:21.879Z,60.91
2022-09-01T03:35:06.799Z,61.33
2022-09-01T03:37:51.608Z,60.46
2022-09-01T03:40:36.437Z,60.44
2022-09-01T03:43:21.737Z,59.95
2022-09-01T03:46:06.531Z,60.20
2022-09-01T03:48:51.827Z,60.86
2022-09-01T03:51:36.967Z,60.98
2022-09-01T03:54:21.773Z,60.35
2022-09-01T03:57:06.702Z,59.96
2022-09-01T03:59:51.395Z,59.94
2022-09-01T04:02:40.444Z,60.34
2022-09-01T04:05:25.693Z,60.88
2022-09-01T04:08:10.527Z,61.20
2022-09-01T04:10:55.437Z,61.72
2022-09-01T04:13:40.231Z,61.86
2022-09-01T04:16:25.105Z,62.33
2022-09-01T04:19:10.377Z,62.21
2022-09-01T04:21:55.120Z,62.41
2022-09-01T04:24:43.253Z,62.83
2022-09-01T04:27:30.178Z,62.22
2022-09-01T04:30:15.143Z,61.46
2022-09-01T04:32:59.864Z,61.62
2022-09-01T04:35:44.764Z,61.36
2022-09-01T04:38:29.740Z,61.58
2022-09-01T04:41:14.606Z,62.21
2022-09-01T04:43:59.588Z,62.25
2022-09-01T04:46:44.321Z,61.39
2022-09-01T04:49:29.179Z,62.19
2022-09-01T04:52:14.476Z,61.08
2022-09-01T04:54:59.164Z,61.57
2022-09-01T04:57:44.106Z,61.79
2022-09-01T05:00:28.958Z,62.05
2022-09-01T05:03:13.793Z,62.17
2022-09-01T05:05:58.435Z,61.90
2022-09-01T05:08:43.462Z,61.29
2022-09-01T05:11:31.167Z,61.68
2022-09-01T05:14:15.958Z,61.86
2022-09-01T05:17:00.871Z,61.60
2022-09-01T05:19:45.826Z,62.04
2022-09-01T05:22:30.653Z,62.03
2022-09-01T05:25:15.516Z,61.92
2022-09-01T05:28:00.804Z,62.44
2022-09-01T05:30:45.467Z,61.58
2022-09-01T05:33:30.155Z,61.12
2022-09-01T05:36:14.754Z,61.19
2022-09-01T05:38:59.621Z,60.75
2022-09-01T05:41:44.408Z,61.24
2022-09-01T05:44:29.247Z,60.57
2022-09-01T05:47:14.776Z,60.29
2022-09-01T05:50:06.031Z,56.42
2022-09-01T05:52:50.977Z,56.88
2022-09-01T05:55:35.823Z,57.06
2022-09-01T05:58:20.561Z,57.85
2022-09-01T06:01:05.892Z,57.87
2022-09-01T06:03:50.599Z,57.65
2022-09-01T06:06:48.969Z,57.57
2022-09-01T06:09:40.645Z,56.41
2022-09-01T06:12:25.528Z,55.51
2022-09-01T06:15:10.269Z,52.55
2022-09-01T06:17:54.854Z,50.86
2022-09-01T06:20:39.570Z,49.88
2022-09-01T06:23:24.425Z,48.73
2022-09-01T06:26:09.229Z,48.39
2022-09-01T06:28:54.211Z,48.00
2022-09-01T06:31:39.056Z,47.73
2022-09-01T06:34:23.879Z,45.49
2022-09-01T06:37:08.676Z,43.27
2022-09-01T06:39:53.381Z,43.37
2022-09-01T06:42:38.174Z,41.04
2022-09-01T06:45:22.857Z,40.83
2022-09-01T06:48:07.647Z,40.31
2022-09-01T06:53:57.495Z,39.23
2022-09-01T06:56:44.987Z,38.71
2022-09-01T06:59:36.435Z,38.57
2022-09-01T07:08:31.270Z,35.82
2022-09-01T07:11:19.790Z,36.35
2022-09-01T07:14:21.329Z,35.43
2022-09-01T07:20:27.128Z,34.50
2022-09-01T07:23:12.209Z,34.11
2022-09-01T07:26:04.492Z,33.54
2022-09-01T07:28:49.512Z,33.28
2022-09-01T07:31:50.161Z,33.88
2022-09-01T07:34:38.830Z,36.02
2022-09-01T07:42:59.167Z,36.37
2022-09-01T07:43:33.799Z,41.28
2022-09-01T07:49:50.114Z,41.95
2022-09-01T07:52:28.765Z,41.67
2022-09-01T07:55:14.411Z,43.51
2022-09-01T07:57:58.997Z,45.23
2022-09-01T08:00:44.763Z,44.75
2022-09-01T08:03:29.632Z,46.15
2022-09-01T08:06:14.334Z,45.86
2022-09-01T08:08:59.211Z,46.14
2022-09-01T08:12:01.722Z,46.83
2022-09-01T08:14:46.898Z,47.82
2022-09-01T08:17:34.611Z,49.33
2022-09-01T08:20:35.696Z,49.82
2022-09-01T08:23:20.552Z,50.89
2022-09-01T08:26:05.241Z,49.97
2022-09-01T08:28:54.925Z,49.70
2022-09-01T08:31:40.334Z,50.01
2022-09-01T08:34:25.138Z,50.74
2022-09-01T08:37:09.927Z,51.06
2022-09-01T08:39:54.749Z,51.02
2022-09-01T08:42:39.465Z,51.15
2022-09-01T08:45:24.184Z,50.02
2022-09-01T08:48:57.217Z,49.62
2022-09-01T08:51:17.184Z,49.76
2022-09-01T08:54:05.073Z,49.51
2022-09-01T08:56:49.918Z,49.98
2022-09-01T08:59:34.576Z,48.34
2022-09-01T09:02:19.407Z,48.90
2022-09-01T09:05:15.402Z,49.18
2022-09-01T09:08:08.133Z,49.03
2022-09-01T09:10:53.213Z,49.40
2022-09-01T09:13:37.990Z,50.33
2022-09-01T09:16:22.858Z,50.21
2022-09-01T09:19:07.961Z,50.29
2022-09-01T09:21:52.686Z,49.26
2022-09-01T09:24:39.401Z,47.98
2022-09-01T09:27:25.288Z,48.14
2022-09-01T09:30:11.886Z,46.02
2022-09-01T09:36:01.549Z,46.60
2022-09-01T09:38:46.487Z,47.59
2022-09-01T09:41:31.263Z,48.62
2022-09-01T09:44:16.061Z,48.05
2022-09-01T09:47:00.774Z,47.96
2022-09-01T09:49:48.880Z,49.54
2022-09-01T09:52:34.205Z,46.35
2022-09-01T09:55:18.789Z,46.80
2022-09-01T09:58:03.421Z,47.64
2022-09-01T10:00:48.162Z,45.95
2022-09-01T10:03:32.866Z,46.50
2022-09-01T10:06:17.482Z,46.90
2022-09-01T10:09:02.745Z,46.73
2022-09-01T10:11:47.849Z,46.10
2022-09-01T10:14:49.842Z,45.16
2022-09-01T10:17:37.515Z,45.36
2022-09-01T10:20:25.484Z,45.66
2022-09-01T10:23:14.948Z,44.58
2022-09-01T10:26:00.391Z,44.40
2022-09-01T10:28:49.893Z,45.03
2022-09-01T10:31:35.535Z,45.54
2022-09-01T10:34:20.248Z,44.62
2022-09-01T10:37:11.238Z,45.04
2022-09-01T10:39:56.482Z,46.48
2022-09-01T10:42:45.260Z,44.54
2022-09-01T10:45:30.351Z,45.24
2022-09-01T10:48:17.890Z,44.12
2022-09-01T10:51:02.831Z,43.86
2022-09-01T10:53:47.606Z,44.15
2022-09-01T10:56:36.637Z,44.55
2022-09-01T10:59:41.750Z,44.54
2022-09-01T11:02:28.713Z,43.92
2022-09-01T11:05:19.510Z,42.84
2022-09-01T11:08:14.916Z,41.60
2022-09-01T11:11:00.100Z,43.21
2022-09-01T11:13:49.174Z,42.80
2022-09-01T11:16:50.161Z,42.89
2022-09-01T11:19:35.599Z,43.23
2022-09-01T11:22:20.279Z,43.96
2022-09-01T11:25:11.785Z,44.03
2022-09-01T11:27:57.627Z,44.00
2022-09-01T11:30:42.925Z,44.36
2022-09-01T11:33:28.148Z,44.65
2022-09-01T11:36:13.143Z,44.08
2022-09-01T11:38:57.947Z,43.23
2022-09-01T11:41:43.006Z,43.71
2022-09-01T11:44:27.820Z,44.16
2022-09-01T11:47:14.595Z,42.96
2022-09-01T11:49:59.820Z,43.04
2022-09-01T11:52:44.549Z,42.92
2022-09-01T11:55:29.295Z,42.76
2022-09-01T11:58:17.789Z,42.48
2022-09-01T12:01:03.010Z,43.17
2022-09-01T12:03:47.800Z,44.08
2022-09-01T12:06:33.044Z,42.95
2022-09-01T12:09:17.821Z,43.11
2022-09-01T12:12:02.605Z,42.29
2022-09-01T12:15:04.886Z,42.11
2022-09-01T12:17:50.575Z,42.79
2022-09-01T12:20:35.386Z,42.21
2022-09-01T12:23:20.570Z,42.98
2022-09-01T12:26:05.664Z,44.14
2022-09-01T12:28:50.339Z,44.28
2022-09-01T12:31:35.137Z,43.79
2022-09-01T12:34:19.874Z,43.78
2022-09-01T12:37:04.601Z,43.87
2022-09-01T12:39:49.394Z,44.41
2022-09-01T12:42:41.254Z,43.44
2022-09-01T12:45:27.892Z,43.92
2022-09-01T12:48:12.617Z,43.34
2022-09-01T12:50:57.425Z,43.23
2022-09-01T12:53:42.583Z,43.19
2022-09-01T12:56:27.593Z,42.95
2022-09-01T12:59:15.686Z,42.84
2022-09-01T13:02:02.923Z,42.82
2022-09-01T13:04:48.125Z,42.19
2022-09-01T13:07:32.860Z,42.38
2022-09-01T13:10:17.713Z,42.15
2022-09-01T13:13:02.425Z,41.23
2022-09-01T13:15:47.330Z,41.57
2022-09-01T13:18:32.154Z,40.47
2022-09-01T13:21:16.780Z,39.56
2022-09-01T13:24:01.637Z,40.02
2022-09-01T13:27:20.304Z,39.69
2022-09-01T13:29:51.750Z,39.47
2022-09-01T13:32:36.637Z,40.58
2022-09-01T13:35:22.277Z,41.33
2022-09-01T13:38:07.136Z,41.07
2022-09-01T13:40:51.944Z,39.50
2022-09-01T13:43:37.146Z,40.32
2022-09-01T13:46:25.526Z,39.97
2022-09-01T13:52:15.076Z,38.23
2022-09-01T13:54:59.797Z,38.80
2022-09-01T13:57:44.461Z,38.34
2022-09-01T14:00:29.112Z,37.60
2022-09-01T14:03:15.001Z,37.59
2022-09-01T14:05:59.791Z,38.32
2022-09-01T14:08:44.568Z,38.77
2022-09-01T14:11:29.307Z,37.02
2022-09-01T14:14:14.254Z,37.33
2022-09-01T14:16:59.013Z,38.66
2022-09-01T14:19:43.956Z,38.52
2022-09-01T14:22:28.532Z,37.35
2022-09-01T14:25:13.264Z,36.94
2022-09-01T14:27:58.380Z,37.10
2022-09-01T14:30:43.235Z,37.41
2022-09-01T14:33:27.931Z,36.67
2022-09-01T14:36:15.071Z,35.57
2022-09-01T14:38:59.987Z,35.45
2022-09-01T14:41:44.809Z,36.21
2022-09-01T14:44:29.655Z,35.41
2022-09-01T14:47:18.211Z,37.12
2022-09-01T14:50:04.614Z,37.07
2022-09-01T14:52:49.383Z,37.19
2022-09-01T14:55:34.068Z,35.44
2022-09-01T14:58:19.001Z,37.17
2022-09-01T15:01:23.495Z,35.10
2022-09-01T15:04:08.522Z,34.93
2022-09-01T15:06:53.301Z,36.49
2022-09-01T15:09:38.022Z,34.11
2022-09-01T15:12:22.738Z,35.29
2022-09-01T15:15:07.497Z,35.13
2022-09-01T15:17:52.244Z,35.15
2022-09-01T15:20:36.870Z,36.01
2022-09-01T15:23:21.704Z,35.87
2022-09-01T15:26:06.296Z,37.18
2022-09-01T15:28:50.976Z,39.39
2022-09-01T15:31:35.569Z,36.28
2022-09-01T15:34:20.405Z,37.55
2022-09-01T15:37:05.135Z,35.92
2022-09-01T15:39:49.909Z,36.68
2022-09-01T15:42:35.038Z,35.18
2022-09-01T15:45:19.813Z,33.58
2022-09-01T15:48:04.622Z,34.06
2022-09-01T15:50:49.303Z,36.16
2022-09-01T15:53:34.034Z,33.63
2022-09-01T15:56:18.657Z,32.12
2022-09-01T15:59:03.367Z,32.76
2022-09-01T16:01:48.144Z,34.32
2022-09-01T16:04:32.805Z,33.48
2022-09-01T16:07:17.680Z,32.85
2022-09-01T16:10:02.336Z,32.10
2022-09-01T16:12:47.276Z,32.25
2022-09-01T16:15:32.072Z,32.39
2022-09-01T16:18:17.010Z,32.43
2022-09-01T16:21:02.072Z,33.42
2022-09-01T16:23:46.888Z,35.42
2022-09-01T16:26:31.618Z,34.73
2022-09-01T16:29:16.368Z,34.51
2022-09-01T16:32:01.130Z,35.11
2022-09-01T16:34:45.926Z,35.12
2022-09-01T16:37:30.766Z,35.92
2022-09-01T16:40:15.558Z,36.26
2022-09-01T16:43:00.274Z,35.80
2022-09-01T16:45:45.055Z,35.23
2022-09-01T16:48:30.309Z,35.08
2022-09-01T16:51:14.987Z,35.05
2022-09-01T16:53:59.781Z,34.74
2022-09-01T16:56:44.616Z,34.56
2022-09-01T16:59:29.393Z,34.95
2022-09-01T17:02:14.379Z,35.57
2022-09-01T17:04:59.579Z,36.20
2022-09-01T17:07:44.422Z,36.11
2022-09-01T17:10:29.043Z,38.03
2022-09-01T17:13:14.390Z,38.46
2022-09-01T17:15:59.104Z,38.02
2022-09-01T17:18:43.795Z,38.59
2022-09-01T17:21:28.593Z,38.80
2022-09-01T17:24:13.446Z,39.53
2022-09-01T17:26:58.239Z,40.07
2022-09-01T17:29:43.014Z,39.93
2022-09-01T17:32:28.242Z,38.57
2022-09-01T17:35:15.991Z,38.82
2022-09-01T17:38:00.790Z,37.77
2022-09-01T17:40:45.671Z,37.03
2022-09-01T17:43:30.800Z,38.14
2022-09-01T17:46:15.662Z,37.62
2022-09-01T17:49:00.764Z,39.53
2022-09-01T17:51:45.581Z,41.52
2022-09-01T17:54:30.366Z,42.99
2022-09-01T17:57:15.077Z,43.77
2022-09-01T17:59:59.699Z,43.46
2022-09-01T18:02:44.574Z,43.40
2022-09-01T18:05:29.396Z,42.66
2022-09-01T18:08:14.573Z,42.41
2022-09-01T18:10:59.427Z,42.62
2022-09-01T18:13:59.714Z,42.72
2022-09-01T18:16:44.895Z,42.51
2022-09-01T18:19:29.510Z,43.20
2022-09-01T18:22:14.394Z,42.94
2022-09-01T18:24:59.047Z,42.70
2022-09-01T18:27:44.433Z,43.28
2022-09-01T18:30:51.680Z,42.88
2022-09-01T18:33:34.003Z,42.95
2022-09-01T18:36:18.754Z,42.70
2022-09-01T18:39:03.510Z,42.49
2022-09-01T18:41:48.137Z,42.54
2022-09-01T18:44:32.835Z,42.35
2022-09-01T18:47:17.553Z,41.68
2022-09-01T18:50:02.287Z,41.77
2022-09-01T18:52:47.072Z,42.43
2022-09-01T18:55:32.003Z,42.90
2022-09-01T18:58:16.721Z,42.74
2022-09-01T19:01:01.473Z,43.02
2022-09-01T19:03:46.185Z,42.64
2022-09-01T19:06:31.077Z,43.55
2022-09-01T19:09:15.906Z,43.51
2022-09-01T19:12:00.779Z,43.63
2022-09-01T19:14:45.528Z,43.81
2022-09-01T19:17:30.207Z,44.10
2022-09-01T19:20:15.078Z,44.27
2022-09-01T19:22:59.786Z,44.04
2022-09-01T19:25:44.637Z,43.77
2022-09-01T19:28:29.318Z,43.69
2022-09-01T19:31:14.317Z,43.77
2022-09-01T19:33:58.861Z,44.39
2022-09-01T19:36:43.681Z,44.91
2022-09-01T19:39:28.477Z,44.30
2022-09-01T19:42:13.438Z,44.10
2022-09-01T19:44:58.138Z,43.54
2022-09-01T19:47:43.878Z,43.53
2022-09-01T19:50:28.724Z,43.99
2022-09-01T19:53:13.522Z,44.41
2022-09-01T19:55:58.286Z,44.30
2022-09-01T19:58:43.022Z,43.91
2022-09-01T20:01:27.995Z,43.80
2022-09-01T20:04:12.636Z,44.13
2022-09-01T20:06:57.449Z,44.27
2022-09-01T20:09:42.158Z,44.49
2022-09-01T20:12:26.953Z,44.92
2022-09-01T20:15:11.868Z,44.70
2022-09-01T20:17:56.952Z,44.67
2022-09-01T20:20:41.757Z,44.58
2022-09-01T20:23:26.512Z,44.80
2022-09-01T20:26:11.323Z,44.93
2022-09-01T20:28:56.740Z,45.40
2022-09-01T20:31:42.050Z,45.17
2022-09-01T20:34:26.823Z,45.18
2022-09-01T20:37:11.647Z,44.68
2022-09-01T20:39:56.267Z,45.31
2022-09-01T20:42:41.027Z,45.06
2022-09-01T20:45:25.953Z,44.94
2022-09-01T20:48:10.605Z,45.20
2022-09-01T20:50:55.462Z,46.07
2022-09-01T20:53:40.054Z,46.47
2022-09-01T20:56:24.868Z,45.86
2022-09-01T20:59:09.647Z,45.75
2022-09-01T21:01:54.410Z,46.59
2022-09-01T21:04:39.002Z,47.46
2022-09-01T21:07:26.087Z,47.19
2022-09-01T21:10:14.853Z,45.57
2022-09-01T21:13:00.135Z,45.31
2022-09-01T21:15:45.006Z,46.11
2022-09-01T21:18:29.835Z,46.72
2022-09-01T21:21:14.608Z,47.57
2022-09-01T21:23:59.418Z,47.08
2022-09-01T21:26:44.159Z,47.23
2022-09-01T21:29:28.958Z,47.41
2022-09-01T21:32:13.612Z,47.10
2022-09-01T21:34:58.355Z,47.17
2022-09-01T21:37:43.262Z,47.67
2022-09-01T21:40:28.078Z,47.28
2022-09-01T21:43:12.848Z,47.10
2022-09-01T21:45:57.691Z,46.97
2022-09-01T21:48:42.969Z,46.99
2022-09-01T21:51:27.633Z,46.68
2022-09-01T21:54:12.429Z,46.98
2022-09-01T21:56:57.073Z,46.67
2022-09-01T21:59:41.835Z,47.25
2022-09-01T22:02:28.464Z,46.99
2022-09-01T22:05:13.891Z,47.40
2022-09-01T22:07:58.709Z,47.68
2022-09-01T22:10:43.408Z,47.66
2022-09-01T22:13:28.266Z,48.27
2022-09-01T22:16:13.224Z,48.43
2022-09-01T22:19:01.460Z,48.29
2022-09-01T22:21:46.391Z,48.33
2022-09-01T22:24:30.941Z,48.36
2022-09-01T22:27:15.804Z,48.30
2022-09-01T22:30:00.518Z,48.15
2022-09-01T22:32:45.381Z,48.79
2022-09-01T22:35:30.582Z,48.61
2022-09-01T22:38:15.439Z,49.43
2022-09-01T22:41:00.037Z,49.30
2022-09-01T22:43:44.905Z,49.16
2022-09-01T22:46:29.591Z,49.42
2022-09-01T22:49:14.340Z,49.81
2022-09-01T22:51:59.258Z,49.67
2022-09-01T22:54:45.062Z,48.97
2022-09-01T22:57:29.877Z,49.29
2022-09-01T23:00:14.565Z,49.34
2022-09-01T23:02:59.335Z,48.97
2022-09-01T23:05:44.114Z,48.85
2022-09-01T23:08:28.938Z,48.70
2022-09-01T23:11:13.657Z,48.99
2022-09-01T23:13:58.492Z,48.95
2022-09-01T23:16:43.223Z,48.91
2022-09-01T23:19:28.442Z,48.96
2022-09-01T23:22:13.258Z,49.10
2022-09-01T23:24:57.921Z,49.10
2022-09-01T23:27:42.694Z,49.17
2022-09-01T23:30:27.489Z,49.16
2022-09-01T23:33:12.205Z,48.98
2022-09-01T23:35:56.947Z,49.50
2022-09-01T23:38:41.713Z,49.18
2022-09-01T23:41:26.547Z,49.44
2022-09-01T23:44:11.380Z,49.84
2022-09-01T23:46:56.157Z,50.27
2022-09-01T23:49:40.964Z,49.80
2022-09-01T23:52:25.874Z,49.71
2022-09-01T23:55:10.601Z,50.13
2022-09-01T23:57:55.378Z,49.83
